sensor_id;sensor_type;location;lat;lon;timestamp;P1;durP1;ratioP1;P2;durP2;ratioP2
7669;SDS011;3877;42.562;27.636;2024-03-22T00:00:05;4.70;;;3.67;;
7669;SDS011;3877;42.562;27.636;2024-03-22T00:02:31;4.10;;;3.70;;
7669;SDS011;3877;42.562;27.636;2024-03-22T00:04:58;4.77;;;3.87;;
7669;SDS011;3877;42.562;27.636;2024-03-22T00:07:26;4.17;;;3.47;;
7669;SDS011;3877;42.562;27.636;2024-03-22T00:09:53;4.20;;;3.80;;
7669;SDS011;3877;42.562;27.636;2024-03-22T00:12:19;5.20;;;4.13;;
7669;SDS011;3877;42.562;27.636;2024-03-22T00:14:46;5.03;;;4.53;;
7669;SDS011;3877;42.562;27.636;2024-03-22T00:17:12;4.53;;;4.07;;
7669;SDS011;3877;42.562;27.636;2024-03-22T00:19:39;5.47;;;4.40;;
7669;SDS011;3877;42.562;27.636;2024-03-22T00:22:05;5.43;;;3.93;;
7669;SDS011;3877;42.562;27.636;2024-03-22T00:24:33;5.57;;;4.20;;
7669;SDS011;3877;42.562;27.636;2024-03-22T00:26:59;4.80;;;4.30;;
7669;SDS011;3877;42.562;27.636;2024-03-22T00:29:26;4.37;;;3.97;;
7669;SDS011;3877;42.562;27.636;2024-03-22T00:31:52;5.70;;;4.90;;
7669;SDS011;3877;42.562;27.636;2024-03-22T00:34:19;4.73;;;4.13;;
7669;SDS011;3877;42.562;27.636;2024-03-22T00:36:45;4.30;;;3.90;;
7669;SDS011;3877;42.562;27.636;2024-03-22T00:39:12;4.67;;;4.23;;
7669;SDS011;3877;42.562;27.636;2024-03-22T00:41:40;5.07;;;4.40;;
7669;SDS011;3877;42.562;27.636;2024-03-22T00:44:07;4.63;;;4.00;;
7669;SDS011;3877;42.562;27.636;2024-03-22T00:46:32;4.50;;;4.10;;
7669;SDS011;3877;42.562;27.636;2024-03-22T00:49:00;4.87;;;4.17;;
7669;SDS011;3877;42.562;27.636;2024-03-22T00:51:26;5.17;;;4.00;;
7669;SDS011;3877;42.562;27.636;2024-03-22T00:53:53;5.00;;;4.20;;
7669;SDS011;3877;42.562;27.636;2024-03-22T00:56:19;5.00;;;4.50;;
7669;SDS011;3877;42.562;27.636;2024-03-22T00:58:48;4.87;;;4.37;;
7669;SDS011;3877;42.562;27.636;2024-03-22T01:01:14;4.30;;;3.77;;
7669;SDS011;3877;42.562;27.636;2024-03-22T01:03:41;5.00;;;4.50;;
7669;SDS011;3877;42.562;27.636;2024-03-22T01:06:07;4.87;;;3.73;;
7669;SDS011;3877;42.562;27.636;2024-03-22T01:08:34;4.80;;;4.00;;
7669;SDS011;3877;42.562;27.636;2024-03-22T01:11:00;5.20;;;4.70;;
7669;SDS011;3877;42.562;27.636;2024-03-22T01:13:28;5.27;;;4.60;;
7669;SDS011;3877;42.562;27.636;2024-03-22T01:15:55;5.20;;;4.20;;
7669;SDS011;3877;42.562;27.636;2024-03-22T01:18:22;5.87;;;4.87;;
7669;SDS011;3877;42.562;27.636;2024-03-22T01:20:48;5.73;;;4.73;;
7669;SDS011;3877;42.562;27.636;2024-03-22T01:23:15;5.63;;;4.77;;
7669;SDS011;3877;42.562;27.636;2024-03-22T01:25:41;6.43;;;5.10;;
7669;SDS011;3877;42.562;27.636;2024-03-22T01:28:08;5.80;;;4.60;;
7669;SDS011;3877;42.562;27.636;2024-03-22T01:30:34;6.37;;;5.00;;
7669;SDS011;3877;42.562;27.636;2024-03-22T01:33:03;5.60;;;4.70;;
7669;SDS011;3877;42.562;27.636;2024-03-22T01:35:30;7.50;;;4.67;;
7669;SDS011;3877;42.562;27.636;2024-03-22T01:37:56;6.40;;;4.90;;
7669;SDS011;3877;42.562;27.636;2024-03-22T01:40:22;5.33;;;4.43;;
7669;SDS011;3877;42.562;27.636;2024-03-22T01:42:52;6.07;;;4.73;;
7669;SDS011;3877;42.562;27.636;2024-03-22T01:45:18;5.73;;;4.87;;
7669;SDS011;3877;42.562;27.636;2024-03-22T01:47:45;6.10;;;5.03;;
7669;SDS011;3877;42.562;27.636;2024-03-22T01:50:13;6.13;;;5.00;;
7669;SDS011;3877;42.562;27.636;2024-03-22T01:52:40;5.70;;;4.47;;
7669;SDS011;3877;42.562;27.636;2024-03-22T01:55:07;6.10;;;4.87;;
7669;SDS011;3877;42.562;27.636;2024-03-22T01:57:34;6.77;;;5.07;;
7669;SDS011;3877;42.562;27.636;2024-03-22T02:00:00;5.90;;;4.80;;
7669;SDS011;3877;42.562;27.636;2024-03-22T02:02:27;7.33;;;5.73;;
7669;SDS011;3877;42.562;27.636;2024-03-22T02:04:53;7.17;;;5.33;;
7669;SDS011;3877;42.562;27.636;2024-03-22T02:07:22;7.30;;;5.13;;
7669;SDS011;3877;42.562;27.636;2024-03-22T02:09:47;7.77;;;5.67;;
7669;SDS011;3877;42.562;27.636;2024-03-22T02:12:15;7.90;;;5.97;;
7669;SDS011;3877;42.562;27.636;2024-03-22T02:14:41;7.87;;;5.70;;
7669;SDS011;3877;42.562;27.636;2024-03-22T02:17:08;6.07;;;4.87;;
7669;SDS011;3877;42.562;27.636;2024-03-22T02:19:34;6.43;;;5.20;;
7669;SDS011;3877;42.562;27.636;2024-03-22T02:22:01;8.37;;;6.70;;
7669;SDS011;3877;42.562;27.636;2024-03-22T02:24:28;8.47;;;6.87;;
7669;SDS011;3877;42.562;27.636;2024-03-22T02:26:55;8.03;;;6.80;;
7669;SDS011;3877;42.562;27.636;2024-03-22T02:29:21;7.50;;;6.23;;
7669;SDS011;3877;42.562;27.636;2024-03-22T02:31:48;9.80;;;7.30;;
7669;SDS011;3877;42.562;27.636;2024-03-22T02:34:14;8.33;;;7.00;;
7669;SDS011;3877;42.562;27.636;2024-03-22T02:36:41;8.03;;;6.90;;
7669;SDS011;3877;42.562;27.636;2024-03-22T02:39:07;8.40;;;7.00;;
7669;SDS011;3877;42.562;27.636;2024-03-22T02:41:36;8.57;;;6.87;;
7669;SDS011;3877;42.562;27.636;2024-03-22T02:44:02;9.93;;;7.53;;
7669;SDS011;3877;42.562;27.636;2024-03-22T02:46:29;9.03;;;7.30;;
7669;SDS011;3877;42.562;27.636;2024-03-22T02:48:56;8.63;;;7.20;;
7669;SDS011;3877;42.562;27.636;2024-03-22T02:51:22;9.67;;;6.90;;
7669;SDS011;3877;42.562;27.636;2024-03-22T02:53:49;8.87;;;6.70;;
7669;SDS011;3877;42.562;27.636;2024-03-22T02:56:15;8.70;;;6.50;;
7669;SDS011;3877;42.562;27.636;2024-03-22T02:58:44;9.30;;;7.20;;
7669;SDS011;3877;42.562;27.636;2024-03-22T03:01:09;9.77;;;7.63;;
7669;SDS011;3877;42.562;27.636;2024-03-22T03:03:37;10.40;;;8.40;;
7669;SDS011;3877;42.562;27.636;2024-03-22T03:06:04;10.13;;;7.93;;
7669;SDS011;3877;42.562;27.636;2024-03-22T03:08:31;10.23;;;8.27;;
7669;SDS011;3877;42.562;27.636;2024-03-22T03:10:57;10.13;;;7.53;;
7669;SDS011;3877;42.562;27.636;2024-03-22T03:13:24;11.57;;;6.90;;
7669;SDS011;3877;42.562;27.636;2024-03-22T03:15:52;11.43;;;8.23;;
7669;SDS011;3877;42.562;27.636;2024-03-22T03:18:20;9.77;;;6.80;;
7669;SDS011;3877;42.562;27.636;2024-03-22T03:20:45;12.53;;;8.57;;
7669;SDS011;3877;42.562;27.636;2024-03-22T03:23:12;11.80;;;8.43;;
7669;SDS011;3877;42.562;27.636;2024-03-22T03:25:38;13.40;;;8.87;;
7669;SDS011;3877;42.562;27.636;2024-03-22T03:28:05;10.20;;;6.97;;
7669;SDS011;3877;42.562;27.636;2024-03-22T03:30:32;12.90;;;7.07;;
7669;SDS011;3877;42.562;27.636;2024-03-22T03:33:01;11.13;;;8.00;;
7669;SDS011;3877;42.562;27.636;2024-03-22T03:35:27;10.53;;;8.43;;
7669;SDS011;3877;42.562;27.636;2024-03-22T03:37:54;10.50;;;8.20;;
7669;SDS011;3877;42.562;27.636;2024-03-22T03:40:20;11.07;;;7.43;;
7669;SDS011;3877;42.562;27.636;2024-03-22T03:42:49;8.67;;;6.40;;
7669;SDS011;3877;42.562;27.636;2024-03-22T03:45:15;11.60;;;8.67;;
7669;SDS011;3877;42.562;27.636;2024-03-22T03:47:42;10.57;;;7.77;;
7669;SDS011;3877;42.562;27.636;2024-03-22T03:50:10;9.80;;;7.30;;
7669;SDS011;3877;42.562;27.636;2024-03-22T03:52:37;11.90;;;7.73;;
7669;SDS011;3877;42.562;27.636;2024-03-22T03:55:04;10.67;;;8.30;;
7669;SDS011;3877;42.562;27.636;2024-03-22T03:57:31;10.83;;;7.97;;
7669;SDS011;3877;42.562;27.636;2024-03-22T03:59:57;11.10;;;8.13;;
7669;SDS011;3877;42.562;27.636;2024-03-22T04:02:24;12.23;;;9.20;;
7669;SDS011;3877;42.562;27.636;2024-03-22T04:04:51;11.27;;;8.20;;
7669;SDS011;3877;42.562;27.636;2024-03-22T04:07:20;11.90;;;8.67;;
7669;SDS011;3877;42.562;27.636;2024-03-22T04:09:47;11.00;;;8.50;;
7669;SDS011;3877;42.562;27.636;2024-03-22T04:12:14;13.20;;;9.33;;
7669;SDS011;3877;42.562;27.636;2024-03-22T04:14:40;11.60;;;8.90;;
7669;SDS011;3877;42.562;27.636;2024-03-22T04:17:07;11.67;;;8.03;;
7669;SDS011;3877;42.562;27.636;2024-03-22T04:19:32;13.70;;;9.03;;
7669;SDS011;3877;42.562;27.636;2024-03-22T04:21:59;11.03;;;8.37;;
7669;SDS011;3877;42.562;27.636;2024-03-22T04:24:27;13.27;;;9.30;;
7669;SDS011;3877;42.562;27.636;2024-03-22T04:26:54;10.97;;;8.00;;
7669;SDS011;3877;42.562;27.636;2024-03-22T04:29:20;14.60;;;8.93;;
7669;SDS011;3877;42.562;27.636;2024-03-22T04:31:49;11.57;;;9.63;;
7669;SDS011;3877;42.562;27.636;2024-03-22T04:34:15;12.73;;;9.13;;
7669;SDS011;3877;42.562;27.636;2024-03-22T04:36:42;15.40;;;9.90;;
7669;SDS011;3877;42.562;27.636;2024-03-22T04:39:09;10.43;;;7.67;;
7669;SDS011;3877;42.562;27.636;2024-03-22T04:41:38;12.17;;;8.27;;
7669;SDS011;3877;42.562;27.636;2024-03-22T04:44:05;11.57;;;8.97;;
7669;SDS011;3877;42.562;27.636;2024-03-22T04:46:32;14.10;;;8.50;;
7669;SDS011;3877;42.562;27.636;2024-03-22T04:48:58;11.20;;;8.30;;
7669;SDS011;3877;42.562;27.636;2024-03-22T04:51:25;12.73;;;9.13;;
7669;SDS011;3877;42.562;27.636;2024-03-22T04:53:51;12.23;;;8.63;;
7669;SDS011;3877;42.562;27.636;2024-03-22T04:56:18;14.07;;;10.00;;
7669;SDS011;3877;42.562;27.636;2024-03-22T04:58:45;11.17;;;8.37;;
7669;SDS011;3877;42.562;27.636;2024-03-22T05:01:12;12.07;;;8.77;;
7669;SDS011;3877;42.562;27.636;2024-03-22T05:03:38;9.93;;;7.13;;
7669;SDS011;3877;42.562;27.636;2024-03-22T05:06:06;11.67;;;7.50;;
7669;SDS011;3877;42.562;27.636;2024-03-22T05:08:33;9.20;;;8.10;;
7669;SDS011;3877;42.562;27.636;2024-03-22T05:10:59;11.10;;;7.97;;
7669;SDS011;3877;42.562;27.636;2024-03-22T05:13:26;11.07;;;8.77;;
7669;SDS011;3877;42.562;27.636;2024-03-22T05:15:54;9.90;;;6.80;;
7669;SDS011;3877;42.562;27.636;2024-03-22T05:18:21;10.23;;;8.40;;
7669;SDS011;3877;42.562;27.636;2024-03-22T05:20:47;10.03;;;8.03;;
7669;SDS011;3877;42.562;27.636;2024-03-22T05:23:15;9.60;;;7.50;;
7669;SDS011;3877;42.562;27.636;2024-03-22T05:25:41;9.90;;;8.00;;
7669;SDS011;3877;42.562;27.636;2024-03-22T05:28:08;10.80;;;8.30;;
7669;SDS011;3877;42.562;27.636;2024-03-22T05:30:34;10.23;;;8.47;;
7669;SDS011;3877;42.562;27.636;2024-03-22T05:33:02;10.10;;;7.53;;
7669;SDS011;3877;42.562;27.636;2024-03-22T05:35:28;8.73;;;7.33;;
7669;SDS011;3877;42.562;27.636;2024-03-22T05:37:55;12.20;;;8.77;;
7669;SDS011;3877;42.562;27.636;2024-03-22T05:40:21;10.17;;;7.43;;
7669;SDS011;3877;42.562;27.636;2024-03-22T05:42:48;10.30;;;7.67;;
7669;SDS011;3877;42.562;27.636;2024-03-22T05:45:14;9.43;;;7.80;;
7669;SDS011;3877;42.562;27.636;2024-03-22T05:47:41;9.73;;;7.40;;
7669;SDS011;3877;42.562;27.636;2024-03-22T05:50:09;11.77;;;8.40;;
7669;SDS011;3877;42.562;27.636;2024-03-22T05:52:36;10.17;;;7.37;;
7669;SDS011;3877;42.562;27.636;2024-03-22T05:55:03;8.60;;;7.43;;
7669;SDS011;3877;42.562;27.636;2024-03-22T05:57:30;9.57;;;7.43;;
7669;SDS011;3877;42.562;27.636;2024-03-22T05:59:56;9.97;;;7.80;;
7669;SDS011;3877;42.562;27.636;2024-03-22T06:02:22;10.83;;;7.67;;
7669;SDS011;3877;42.562;27.636;2024-03-22T06:04:48;10.00;;;7.07;;
7669;SDS011;3877;42.562;27.636;2024-03-22T06:07:17;10.53;;;8.20;;
7669;SDS011;3877;42.562;27.636;2024-03-22T06:09:43;9.33;;;6.97;;
7669;SDS011;3877;42.562;27.636;2024-03-22T06:12:12;10.53;;;7.27;;
7669;SDS011;3877;42.562;27.636;2024-03-22T06:14:38;9.57;;;7.47;;
7669;SDS011;3877;42.562;27.636;2024-03-22T06:17:05;9.63;;;7.57;;
7669;SDS011;3877;42.562;27.636;2024-03-22T06:19:31;11.20;;;7.80;;
7669;SDS011;3877;42.562;27.636;2024-03-22T06:21:58;9.77;;;7.10;;
7669;SDS011;3877;42.562;27.636;2024-03-22T06:24:25;10.37;;;7.27;;
7669;SDS011;3877;42.562;27.636;2024-03-22T06:26:52;10.83;;;7.90;;
7669;SDS011;3877;42.562;27.636;2024-03-22T06:29:18;9.83;;;7.00;;
7669;SDS011;3877;42.562;27.636;2024-03-22T06:31:46;8.97;;;7.37;;
7669;SDS011;3877;42.562;27.636;2024-03-22T06:34:12;12.20;;;7.43;;
7669;SDS011;3877;42.562;27.636;2024-03-22T06:36:39;8.47;;;6.80;;
7669;SDS011;3877;42.562;27.636;2024-03-22T06:39:05;10.47;;;7.43;;
7669;SDS011;3877;42.562;27.636;2024-03-22T06:41:35;9.67;;;7.33;;
7669;SDS011;3877;42.562;27.636;2024-03-22T06:44:01;9.40;;;7.57;;
7669;SDS011;3877;42.562;27.636;2024-03-22T06:46:28;8.47;;;6.80;;
7669;SDS011;3877;42.562;27.636;2024-03-22T06:48:54;8.23;;;6.73;;
7669;SDS011;3877;42.562;27.636;2024-03-22T06:51:21;8.90;;;6.87;;
7669;SDS011;3877;42.562;27.636;2024-03-22T06:53:47;8.87;;;7.03;;
7669;SDS011;3877;42.562;27.636;2024-03-22T06:56:14;7.53;;;6.23;;
7669;SDS011;3877;42.562;27.636;2024-03-22T06:58:42;10.90;;;6.90;;
7669;SDS011;3877;42.562;27.636;2024-03-22T07:01:09;12.37;;;6.80;;
7669;SDS011;3877;42.562;27.636;2024-03-22T07:03:35;8.60;;;6.57;;
7669;SDS011;3877;42.562;27.636;2024-03-22T07:06:02;8.57;;;6.80;;
7669;SDS011;3877;42.562;27.636;2024-03-22T07:08:29;8.83;;;6.20;;
7669;SDS011;3877;42.562;27.636;2024-03-22T07:10:56;13.83;;;5.43;;
7669;SDS011;3877;42.562;27.636;2024-03-22T07:13:22;7.37;;;5.70;;
7669;SDS011;3877;42.562;27.636;2024-03-22T07:15:50;12.30;;;7.70;;
7669;SDS011;3877;42.562;27.636;2024-03-22T07:18:16;10.20;;;7.87;;
7669;SDS011;3877;42.562;27.636;2024-03-22T07:20:44;7.50;;;5.90;;
7669;SDS011;3877;42.562;27.636;2024-03-22T07:23:10;7.43;;;6.67;;
7669;SDS011;3877;42.562;27.636;2024-03-22T07:25:37;9.00;;;6.70;;
7669;SDS011;3877;42.562;27.636;2024-03-22T07:28:03;8.23;;;6.67;;
7669;SDS011;3877;42.562;27.636;2024-03-22T07:30:30;6.63;;;5.70;;
7669;SDS011;3877;42.562;27.636;2024-03-22T07:32:57;7.13;;;5.53;;
7669;SDS011;3877;42.562;27.636;2024-03-22T07:35:24;7.40;;;5.43;;
7669;SDS011;3877;42.562;27.636;2024-03-22T07:37:50;8.27;;;6.47;;
7669;SDS011;3877;42.562;27.636;2024-03-22T07:40:17;8.37;;;6.03;;
7669;SDS011;3877;42.562;27.636;2024-03-22T07:42:43;6.93;;;5.37;;
7669;SDS011;3877;42.562;27.636;2024-03-22T07:45:10;5.67;;;5.07;;
7669;SDS011;3877;42.562;27.636;2024-03-22T07:47:37;4.93;;;4.23;;
7669;SDS011;3877;42.562;27.636;2024-03-22T07:50:09;6.50;;;5.33;;
7669;SDS011;3877;42.562;27.636;2024-03-22T07:52:35;6.03;;;5.00;;
7669;SDS011;3877;42.562;27.636;2024-03-22T07:55:02;5.23;;;4.73;;
7669;SDS011;3877;42.562;27.636;2024-03-22T07:57:28;7.03;;;4.70;;
7669;SDS011;3877;42.562;27.636;2024-03-22T07:59:56;4.57;;;3.83;;
7669;SDS011;3877;42.562;27.636;2024-03-22T08:02:22;7.13;;;4.97;;
7669;SDS011;3877;42.562;27.636;2024-03-22T08:04:49;5.67;;;4.47;;
7669;SDS011;3877;42.562;27.636;2024-03-22T08:07:16;8.03;;;4.60;;
7669;SDS011;3877;42.562;27.636;2024-03-22T08:09:43;6.17;;;4.43;;
7669;SDS011;3877;42.562;27.636;2024-03-22T08:12:09;4.37;;;3.67;;
7669;SDS011;3877;42.562;27.636;2024-03-22T08:14:36;5.80;;;4.30;;
7669;SDS011;3877;42.562;27.636;2024-03-22T08:17:02;5.27;;;4.10;;
7669;SDS011;3877;42.562;27.636;2024-03-22T08:19:29;7.63;;;3.80;;
7669;SDS011;3877;42.562;27.636;2024-03-22T08:21:56;7.10;;;5.60;;
7669;SDS011;3877;42.562;27.636;2024-03-22T08:24:24;4.70;;;4.00;;
7669;SDS011;3877;42.562;27.636;2024-03-22T08:26:50;11.07;;;4.10;;
7669;SDS011;3877;42.562;27.636;2024-03-22T08:29:17;5.90;;;3.92;;
7669;SDS011;3877;42.562;27.636;2024-03-22T08:31:43;4.53;;;3.90;;
7669;SDS011;3877;42.562;27.636;2024-03-22T08:34:10;6.97;;;4.57;;
7669;SDS011;3877;42.562;27.636;2024-03-22T08:36:36;5.50;;;3.83;;
7669;SDS011;3877;42.562;27.636;2024-03-22T08:39:04;4.33;;;3.83;;
7669;SDS011;3877;42.562;27.636;2024-03-22T08:41:33;5.03;;;3.87;;
7669;SDS011;3877;42.562;27.636;2024-03-22T08:44:01;7.55;;;3.75;;
7669;SDS011;3877;42.562;27.636;2024-03-22T08:46:27;5.73;;;3.60;;
7669;SDS011;3877;42.562;27.636;2024-03-22T08:48:54;8.63;;;4.00;;
7669;SDS011;3877;42.562;27.636;2024-03-22T08:51:20;5.20;;;4.10;;
7669;SDS011;3877;42.562;27.636;2024-03-22T08:53:47;4.33;;;3.70;;
7669;SDS011;3877;42.562;27.636;2024-03-22T08:56:13;6.30;;;3.70;;
7669;SDS011;3877;42.562;27.636;2024-03-22T08:58:42;4.20;;;3.70;;
7669;SDS011;3877;42.562;27.636;2024-03-22T09:01:08;4.83;;;3.93;;
7669;SDS011;3877;42.562;27.636;2024-03-22T09:03:35;8.53;;;4.00;;
7669;SDS011;3877;42.562;27.636;2024-03-22T09:06:01;6.40;;;3.93;;
7669;SDS011;3877;42.562;27.636;2024-03-22T09:08:29;4.93;;;4.30;;
7669;SDS011;3877;42.562;27.636;2024-03-22T09:10:55;10.20;;;4.07;;
7669;SDS011;3877;42.562;27.636;2024-03-22T09:13:22;6.47;;;4.30;;
7669;SDS011;3877;42.562;27.636;2024-03-22T09:15:55;4.50;;;3.40;;
7669;SDS011;3877;42.562;27.636;2024-03-22T09:18:23;4.97;;;3.47;;
7669;SDS011;3877;42.562;27.636;2024-03-22T09:20:49;4.73;;;4.03;;
7669;SDS011;3877;42.562;27.636;2024-03-22T09:23:16;6.33;;;3.80;;
7669;SDS011;3877;42.562;27.636;2024-03-22T09:25:42;4.80;;;3.70;;
7669;SDS011;3877;42.562;27.636;2024-03-22T09:28:10;4.87;;;3.73;;
7669;SDS011;3877;42.562;27.636;2024-03-22T09:30:37;6.33;;;3.70;;
7669;SDS011;3877;42.562;27.636;2024-03-22T09:33:06;5.80;;;3.70;;
7669;SDS011;3877;42.562;27.636;2024-03-22T09:35:33;4.53;;;3.67;;
7669;SDS011;3877;42.562;27.636;2024-03-22T09:38:00;3.93;;;3.20;;
7669;SDS011;3877;42.562;27.636;2024-03-22T09:40:26;4.63;;;3.77;;
7669;SDS011;3877;42.562;27.636;2024-03-22T09:42:53;4.07;;;3.40;;
7669;SDS011;3877;42.562;27.636;2024-03-22T09:45:19;3.50;;;3.20;;
7669;SDS011;3877;42.562;27.636;2024-03-22T09:47:47;3.80;;;3.20;;
7669;SDS011;3877;42.562;27.636;2024-03-22T09:50:15;4.00;;;3.10;;
7669;SDS011;3877;42.562;27.636;2024-03-22T09:52:42;3.77;;;3.20;;
7669;SDS011;3877;42.562;27.636;2024-03-22T09:55:09;3.77;;;3.20;;
7669;SDS011;3877;42.562;27.636;2024-03-22T09:57:38;5.10;;;3.20;;
7669;SDS011;3877;42.562;27.636;2024-03-22T10:00:06;3.57;;;3.17;;
7669;SDS011;3877;42.562;27.636;2024-03-22T10:02:34;5.20;;;2.80;;
7669;SDS011;3877;42.562;27.636;2024-03-22T10:05:00;3.60;;;3.10;;
7669;SDS011;3877;42.562;27.636;2024-03-22T10:07:29;3.87;;;3.00;;
7669;SDS011;3877;42.562;27.636;2024-03-22T10:09:57;3.23;;;2.87;;
7669;SDS011;3877;42.562;27.636;2024-03-22T10:12:24;3.13;;;2.50;;
7669;SDS011;3877;42.562;27.636;2024-03-22T10:14:52;5.57;;;3.47;;
7669;SDS011;3877;42.562;27.636;2024-03-22T10:17:19;3.60;;;2.97;;
7669;SDS011;3877;42.562;27.636;2024-03-22T10:19:45;3.60;;;3.30;;
7669;SDS011;3877;42.562;27.636;2024-03-22T10:22:12;3.90;;;3.30;;
7669;SDS011;3877;42.562;27.636;2024-03-22T10:24:43;3.73;;;3.17;;
7669;SDS011;3877;42.562;27.636;2024-03-22T10:27:10;6.10;;;3.10;;
7669;SDS011;3877;42.562;27.636;2024-03-22T10:29:36;4.40;;;3.57;;
7669;SDS011;3877;42.562;27.636;2024-03-22T10:32:03;4.97;;;3.10;;
7669;SDS011;3877;42.562;27.636;2024-03-22T10:34:29;3.50;;;3.20;;
7669;SDS011;3877;42.562;27.636;2024-03-22T10:36:56;4.23;;;2.90;;
7669;SDS011;3877;42.562;27.636;2024-03-22T10:39:23;4.60;;;3.23;;
7669;SDS011;3877;42.562;27.636;2024-03-22T10:41:51;4.63;;;3.17;;
7669;SDS011;3877;42.562;27.636;2024-03-22T10:44:17;4.28;;;2.85;;
7669;SDS011;3877;42.562;27.636;2024-03-22T10:46:45;3.83;;;3.13;;
7669;SDS011;3877;42.562;27.636;2024-03-22T10:49:12;3.00;;;2.70;;
7669;SDS011;3877;42.562;27.636;2024-03-22T10:51:41;3.60;;;3.30;;
7669;SDS011;3877;42.562;27.636;2024-03-22T10:54:08;4.13;;;3.20;;
7669;SDS011;3877;42.562;27.636;2024-03-22T10:56:36;3.90;;;3.40;;
7669;SDS011;3877;42.562;27.636;2024-03-22T10:59:04;4.90;;;3.27;;
7669;SDS011;3877;42.562;27.636;2024-03-22T11:01:31;4.33;;;3.50;;
7669;SDS011;3877;42.562;27.636;2024-03-22T11:04:05;5.10;;;3.23;;
7669;SDS011;3877;42.562;27.636;2024-03-22T11:06:32;5.33;;;3.30;;
7669;SDS011;3877;42.562;27.636;2024-03-22T11:08:59;3.70;;;3.30;;
7669;SDS011;3877;42.562;27.636;2024-03-22T11:11:28;5.47;;;3.20;;
7669;SDS011;3877;42.562;27.636;2024-03-22T11:13:54;3.57;;;3.10;;
7669;SDS011;3877;42.562;27.636;2024-03-22T11:16:24;3.70;;;3.27;;
7669;SDS011;3877;42.562;27.636;2024-03-22T11:18:50;4.83;;;2.87;;
7669;SDS011;3877;42.562;27.636;2024-03-22T11:21:17;4.10;;;3.27;;
7669;SDS011;3877;42.562;27.636;2024-03-22T11:23:44;4.87;;;2.90;;
7669;SDS011;3877;42.562;27.636;2024-03-22T11:26:12;3.27;;;2.87;;
7669;SDS011;3877;42.562;27.636;2024-03-22T11:28:38;3.03;;;2.70;;
7669;SDS011;3877;42.562;27.636;2024-03-22T11:31:05;5.60;;;2.57;;
7669;SDS011;3877;42.562;27.636;2024-03-22T11:33:32;3.70;;;3.30;;
7669;SDS011;3877;42.562;27.636;2024-03-22T11:35:59;4.50;;;2.87;;
7669;SDS011;3877;42.562;27.636;2024-03-22T11:38:26;3.23;;;2.90;;
7669;SDS011;3877;42.562;27.636;2024-03-22T11:40:53;5.47;;;2.90;;
7669;SDS011;3877;42.562;27.636;2024-03-22T11:43:21;4.10;;;2.73;;
7669;SDS011;3877;42.562;27.636;2024-03-22T11:45:48;4.10;;;2.93;;
7669;SDS011;3877;42.562;27.636;2024-03-22T11:48:14;3.97;;;2.97;;
7669;SDS011;3877;42.562;27.636;2024-03-22T11:50:43;4.23;;;3.30;;
7669;SDS011;3877;42.562;27.636;2024-03-22T11:53:09;6.73;;;4.90;;
7669;SDS011;3877;42.562;27.636;2024-03-22T11:55:36;5.73;;;4.40;;
7669;SDS011;3877;42.562;27.636;2024-03-22T11:58:02;4.83;;;3.57;;
7669;SDS011;3877;42.562;27.636;2024-03-22T12:00:29;6.07;;;3.70;;
7669;SDS011;3877;42.562;27.636;2024-03-22T12:02:55;3.00;;;2.70;;
7669;SDS011;3877;42.562;27.636;2024-03-22T12:05:22;3.17;;;2.80;;
7669;SDS011;3877;42.562;27.636;2024-03-22T12:07:50;6.70;;;3.33;;
7669;SDS011;3877;42.562;27.636;2024-03-22T12:10:18;4.23;;;3.20;;
7669;SDS011;3877;42.562;27.636;2024-03-22T12:12:44;5.47;;;3.10;;
7669;SDS011;3877;42.562;27.636;2024-03-22T12:15:11;3.95;;;3.20;;
7669;SDS011;3877;42.562;27.636;2024-03-22T12:17:37;4.35;;;3.20;;
7669;SDS011;3877;42.562;27.636;2024-03-22T12:20:05;5.77;;;3.57;;
7669;SDS011;3877;42.562;27.636;2024-03-22T12:22:31;3.93;;;3.53;;
7669;SDS011;3877;42.562;27.636;2024-03-22T12:25:00;6.20;;;3.37;;
7669;SDS011;3877;42.562;27.636;2024-03-22T12:27:26;3.92;;;3.53;;
7669;SDS011;3877;42.562;27.636;2024-03-22T12:29:52;9.10;;;3.63;;
7669;SDS011;3877;42.562;27.636;2024-03-22T12:32:18;6.80;;;3.50;;
7669;SDS011;3877;42.562;27.636;2024-03-22T12:34:46;4.20;;;3.58;;
7669;SDS011;3877;42.562;27.636;2024-03-22T12:37:12;4.03;;;3.30;;
7669;SDS011;3877;42.562;27.636;2024-03-22T12:39:40;7.03;;;4.10;;
7669;SDS011;3877;42.562;27.636;2024-03-22T12:42:08;4.43;;;3.80;;
7669;SDS011;3877;42.562;27.636;2024-03-22T12:44:35;5.67;;;3.83;;
7669;SDS011;3877;42.562;27.636;2024-03-22T12:47:01;10.48;;;3.50;;
7669;SDS011;3877;42.562;27.636;2024-03-22T12:49:28;12.00;;;4.35;;
7669;SDS011;3877;42.562;27.636;2024-03-22T12:51:55;12.53;;;8.77;;
7669;SDS011;3877;42.562;27.636;2024-03-22T12:54:23;5.23;;;3.97;;
7669;SDS011;3877;42.562;27.636;2024-03-22T12:56:49;8.27;;;3.77;;
7669;SDS011;3877;42.562;27.636;2024-03-22T12:59:17;4.90;;;3.63;;
7669;SDS011;3877;42.562;27.636;2024-03-22T13:01:43;8.40;;;4.30;;
7669;SDS011;3877;42.562;27.636;2024-03-22T13:04:10;4.32;;;3.90;;
7669;SDS011;3877;42.562;27.636;2024-03-22T13:06:37;5.70;;;3.70;;
7669;SDS011;3877;42.562;27.636;2024-03-22T13:09:04;6.30;;;4.03;;
7669;SDS011;3877;42.562;27.636;2024-03-22T13:11:30;7.93;;;4.70;;
7669;SDS011;3877;42.562;27.636;2024-03-22T13:13:57;9.97;;;4.80;;
7669;SDS011;3877;42.562;27.636;2024-03-22T13:16:26;7.30;;;4.03;;
7669;SDS011;3877;42.562;27.636;2024-03-22T13:18:53;8.23;;;4.72;;
7669;SDS011;3877;42.562;27.636;2024-03-22T13:21:18;5.70;;;4.60;;
7669;SDS011;3877;42.562;27.636;2024-03-22T13:23:46;6.38;;;4.50;;
7669;SDS011;3877;42.562;27.636;2024-03-22T13:26:11;6.68;;;4.22;;
7669;SDS011;3877;42.562;27.636;2024-03-22T13:28:38;4.97;;;4.40;;
7669;SDS011;3877;42.562;27.636;2024-03-22T13:31:06;7.40;;;5.00;;
7669;SDS011;3877;42.562;27.636;2024-03-22T13:33:35;5.77;;;5.10;;
7669;SDS011;3877;42.562;27.636;2024-03-22T13:36:01;5.03;;;4.27;;
7669;SDS011;3877;42.562;27.636;2024-03-22T13:38:29;7.90;;;4.60;;
7669;SDS011;3877;42.562;27.636;2024-03-22T13:40:55;8.13;;;5.50;;
7669;SDS011;3877;42.562;27.636;2024-03-22T13:43:22;10.82;;;5.93;;
7669;SDS011;3877;42.562;27.636;2024-03-22T13:45:50;13.90;;;5.30;;
7669;SDS011;3877;42.562;27.636;2024-03-22T13:48:19;9.43;;;5.30;;
7669;SDS011;3877;42.562;27.636;2024-03-22T13:50:47;5.30;;;4.20;;
7669;SDS011;3877;42.562;27.636;2024-03-22T13:53:14;8.77;;;5.10;;
7669;SDS011;3877;42.562;27.636;2024-03-22T13:55:41;12.80;;;5.67;;
7669;SDS011;3877;42.562;27.636;2024-03-22T13:58:08;6.27;;;4.63;;
7669;SDS011;3877;42.562;27.636;2024-03-22T14:00:35;6.23;;;4.90;;
7669;SDS011;3877;42.562;27.636;2024-03-22T14:03:02;6.63;;;4.82;;
7669;SDS011;3877;42.562;27.636;2024-03-22T14:05:28;10.97;;;5.03;;
7669;SDS011;3877;42.562;27.636;2024-03-22T14:07:58;4.87;;;4.17;;
7669;SDS011;3877;42.562;27.636;2024-03-22T14:10:24;8.68;;;4.95;;
7669;SDS011;3877;42.562;27.636;2024-03-22T14:12:52;4.87;;;4.30;;
7669;SDS011;3877;42.562;27.636;2024-03-22T14:15:18;10.67;;;4.93;;
7669;SDS011;3877;42.562;27.636;2024-03-22T14:17:45;15.40;;;4.78;;
7669;SDS011;3877;42.562;27.636;2024-03-22T14:20:11;9.00;;;5.77;;
7669;SDS011;3877;42.562;27.636;2024-03-22T14:22:38;11.67;;;5.40;;
7669;SDS011;3877;42.562;27.636;2024-03-22T14:25:07;9.65;;;4.72;;
7669;SDS011;3877;42.562;27.636;2024-03-22T14:27:35;8.50;;;5.43;;
7669;SDS011;3877;42.562;27.636;2024-03-22T14:30:02;5.73;;;4.50;;
7669;SDS011;3877;42.562;27.636;2024-03-22T14:32:31;5.83;;;4.37;;
7669;SDS011;3877;42.562;27.636;2024-03-22T14:34:57;7.13;;;5.00;;
7669;SDS011;3877;42.562;27.636;2024-03-22T14:37:24;11.37;;;6.37;;
7669;SDS011;3877;42.562;27.636;2024-03-22T14:39:49;8.93;;;5.53;;
7669;SDS011;3877;42.562;27.636;2024-03-22T14:42:18;5.33;;;4.83;;
7669;SDS011;3877;42.562;27.636;2024-03-22T14:44:45;12.17;;;4.63;;
7669;SDS011;3877;42.562;27.636;2024-03-22T14:47:12;7.37;;;5.27;;
7669;SDS011;3877;42.562;27.636;2024-03-22T14:49:38;8.37;;;5.77;;
7669;SDS011;3877;42.562;27.636;2024-03-22T14:52:06;13.17;;;7.23;;
7669;SDS011;3877;42.562;27.636;2024-03-22T14:54:32;19.50;;;7.77;;